Time;durP1;ratioP1;P1;durP2;ratioP2;P2;SDS_P1;SDS_P2;PMS_P1;PMS_P2;Temp;Humidity;BMP_temperature;BMP_pressure;BME280_temperature;BME280_humidity;BME280_pressure;Samples;Min_cycle;Max_cycle;Signal;HPM_P1;HPM_P2
2023/08/10 00:01:05;;;;;;;6.70;3.83;;;;;;;13.24;100.00;101999.09;5031225;28;20021;-78
2023/08/10 00:03:30;;;;;;;9.13;3.67;;;;;;;13.27;100.00;102005.97;5030523;28;20079;-78
2023/08/10 00:05:56;;;;;;;7.30;3.47;;;;;;;13.31;100.00;102010.09;5031534;28;20025;-78
2023/08/10 00:08:21;;;;;;;6.82;3.42;;;;;;;13.35;100.00;102011.59;5032303;28;20104;-78
2023/08/10 00:10:49;;;;;;;10.35;3.72;;;;;;;13.35;100.00;102011.59;5043478;28;20025;-78
2023/08/10 00:13:15;;;;;;;6.25;3.70;;;;;;;13.35;100.00;102011.59;5022452;28;20034;-78
2023/08/10 00:15:42;;;;;;;5.82;3.72;;;;;;;13.38;100.00;102006.09;5043332;28;20267;-78
2023/08/10 00:18:10;;;;;;;5.63;3.50;;;;;;;13.36;100.00;102014.13;5042377;28;20093;-78
2023/08/10 00:20:36;;;;;;;5.65;3.55;;;;;;;13.40;100.00;102006.84;5044998;28;20404;-78
2023/08/10 00:23:01;;;;;;;6.28;3.90;;;;;;;13.42;100.00;102018.16;5039202;28;20414;-78
2023/08/10 00:25:26;;;;;;;6.10;4.05;;;;;;;13.45;100.00;102016.16;5045690;28;20308;-77
2023/08/10 00:27:55;;;;;;;7.65;3.90;;;;;;;13.46;100.00;102009.06;5035006;28;20449;-77
2023/08/10 00:30:21;;;;;;;7.85;3.60;;;;;;;13.49;100.00;102014.13;5009348;28;20402;-77
2023/08/10 00:32:46;;;;;;;6.97;4.03;;;;;;;13.49;100.00;102008.84;5009398;28;20022;-77
2023/08/10 00:35:12;;;;;;;9.82;3.70;;;;;;;13.46;100.00;102024.91;5027628;28;20059;-77
2023/08/10 00:37:37;;;;;;;7.35;3.92;;;;;;;13.51;100.00;102016.69;5048270;28;20028;-77
2023/08/10 00:40:03;;;;;;;7.80;3.65;;;;;;;13.47;100.00;102016.88;5048234;28;20033;-77
2023/08/10 00:42:34;;;;;;;7.60;3.83;;;;;;;13.52;100.00;102019.22;5050015;28;20017;-77
2023/08/10 00:44:59;;;;;;;8.55;4.10;;;;;;;13.54;100.00;102014.66;5048431;28;20394;-78
2023/08/10 00:47:26;;;;;;;7.20;3.78;;;;;;;13.53;100.00;102010.34;5037280;28;20028;-78
2023/08/10 00:49:52;;;;;;;5.70;3.50;;;;;;;13.59;100.00;102011.72;5041504;28;20036;-78
2023/08/10 00:52:17;;;;;;;5.03;3.63;;;;;;;13.57;100.00;102010.97;5046397;28;20029;-78
2023/08/10 00:54:43;;;;;;;7.13;3.70;;;;;;;13.53;100.00;102006.84;5040691;28;20056;-78
2023/08/10 00:57:08;;;;;;;6.40;3.42;;;;;;;13.51;100.00;102004.31;5037433;28;20029;-78
2023/08/10 00:59:35;;;;;;;7.20;3.67;;;;;;;13.51;100.00;102000.81;5030969;28;20039;-77
2023/08/10 01:02:01;;;;;;;6.65;3.53;;;;;;;13.49;100.00;102006.22;5055409;28;20014;-77
2023/08/10 01:04:27;;;;;;;6.03;3.83;;;;;;;13.46;100.00;102007.25;5039813;28;20025;-77
2023/08/10 01:06:59;;;;;;;7.18;3.67;;;;;;;13.47;100.00;102008.09;5031118;28;20027;-77
2023/08/10 01:09:39;;;;;;;7.43;4.00;;;;;;;13.48;100.00;102017.72;5048368;28;20477;-77
2023/08/10 01:12:20;;;;;;;6.85;3.55;;;;;;;13.45;100.00;102020.59;5046819;28;20119;-77
2023/08/10 01:15:02;;;;;;;6.63;3.70;;;;;;;13.42;100.00;102012.84;5041014;28;20029;-77
2023/08/10 01:17:34;;;;;;;6.82;4.40;;;;;;;13.38;100.00;102021.94;5049378;28;20109;-77
2023/08/10 01:20:04;;;;;;;5.60;3.30;;;;;;;13.40;100.00;102020.06;5020804;28;20048;-77
2023/08/10 01:22:47;;;;;;;6.40;4.22;;;;;;;13.40;100.00;102015.59;5028838;28;20025;-77
2023/08/10 01:25:14;;;;;;;8.63;4.20;;;;;;;13.39;100.00;102010.44;5035652;28;20043;-77
2023/08/10 01:27:40;;;;;;;7.80;4.18;;;;;;;13.38;100.00;102009.56;5012626;28;20029;-77
2023/08/10 01:30:07;;;;;;;6.35;4.40;;;;;;;13.36;100.00;102018.56;5049203;28;20035;-77
2023/08/10 01:32:33;;;;;;;7.75;4.55;;;;;;;13.29;100.00;102022.56;5047325;28;20025;-77
2023/08/10 01:34:59;;;;;;;5.78;4.32;;;;;;;13.28;100.00;102019.09;5043580;28;20501;-77
2023/08/10 01:37:26;;;;;;;6.22;4.45;;;;;;;13.28;100.00;102011.16;5053582;28;20025;-77
2023/08/10 01:39:51;;;;;;;6.10;4.20;;;;;;;13.26;100.00;102013.06;5033974;28;20489;-77
2023/08/10 01:42:17;;;;;;;9.25;4.60;;;;;;;13.23;100.00;102020.34;5046403;28;20100;-77
2023/08/10 01:44:43;;;;;;;6.15;4.00;;;;;;;13.22;100.00;102016.84;5047746;28;20469;-77
2023/08/10 01:47:19;;;;;;;6.55;4.45;;;;;;;13.19;100.00;102011.75;5048203;28;20049;-77
2023/08/10 01:49:51;;;;;;;6.80;4.30;;;;;;;13.13;100.00;102018.25;5049108;28;20029;-77
2023/08/10 01:52:19;;;;;;;6.90;4.00;;;;;;;13.13;100.00;102017.41;5041164;28;20027;-77
2023/08/10 01:54:45;;;;;;;6.68;4.22;;;;;;;13.12;100.00;102021.84;5026649;28;20481;-78
2023/08/10 01:57:10;;;;;;;6.28;4.13;;;;;;;13.06;100.00;102018.75;5027870;28;20037;-78
2023/08/10 01:59:36;;;;;;;5.47;4.32;;;;;;;13.05;100.00;102015.28;5035292;28;20405;-77
2023/08/10 02:02:01;;;;;;;7.25;4.47;;;;;;;13.03;100.00;102022.44;5037871;28;20090;-77
2023/08/10 02:04:26;;;;;;;6.40;4.32;;;;;;;12.99;100.00;102018.31;5047318;28;20857;-77
2023/08/10 02:06:52;;;;;;;5.03;4.00;;;;;;;12.95;100.00;102021.25;5047662;28;20481;-77
2023/08/10 02:09:18;;;;;;;7.03;4.18;;;;;;;12.93;100.00;102025.78;5046363;28;20032;-77
2023/08/10 02:11:44;;;;;;;5.90;3.95;;;;;;;12.87;100.00;102024.41;5027933;28;20037;-77
2023/08/10 02:14:09;;;;;;;7.90;4.20;;;;;;;12.86;100.00;102025.34;5028282;28;20018;-77
2023/08/10 02:16:35;;;;;;;8.05;4.53;;;;;;;12.86;100.00;102020.06;5032133;28;20021;-77
2023/08/10 02:19:00;;;;;;;7.78;4.80;;;;;;;12.84;100.00;102021.97;5045908;28;20040;-77
2023/08/10 02:21:26;;;;;;;8.48;4.75;;;;;;;12.83;100.00;102025.56;5046165;28;20120;-78
2023/08/10 02:23:52;;;;;;;6.95;4.10;;;;;;;12.75;100.00;102020.75;5032782;28;20029;-77
2023/08/10 02:26:17;;;;;;;5.53;4.20;;;;;;;12.75;100.00;102028.66;5043685;28;20040;-78
2023/08/10 02:28:43;;;;;;;5.75;4.35;;;;;;;12.71;100.00;102028.97;5034348;28;20021;-78
2023/08/10 02:31:08;;;;;;;7.15;4.43;;;;;;;12.69;100.00;102034.34;5045782;28;20033;-78
2023/08/10 02:33:33;;;;;;;7.13;4.38;;;;;;;12.67;100.00;102025.66;5048081;28;20504;-78
2023/08/10 02:35:59;;;;;;;7.47;4.63;;;;;;;12.64;100.00;102028.50;5048574;28;20016;-77
2023/08/10 02:38:24;;;;;;;6.85;4.80;;;;;;;12.62;100.00;102026.91;5047092;28;20470;-77
2023/08/10 02:40:50;;;;;;;7.05;4.55;;;;;;;12.57;100.00;102023.72;5044446;28;20029;-77
2023/08/10 02:43:15;;;;;;;8.27;4.60;;;;;;;12.55;100.00;102032.59;5021640;28;20421;-77
2023/08/10 02:45:40;;;;;;;6.45;4.22;;;;;;;12.54;100.00;102025.63;5027786;28;20051;-77
2023/08/10 02:48:06;;;;;;;7.35;4.75;;;;;;;12.51;100.00;102030.25;5028737;28;20385;-77
2023/08/10 02:50:32;;;;;;;4.97;4.28;;;;;;;12.49;100.00;102027.69;5026979;28;20106;-77
2023/08/10 02:52:57;;;;;;;6.32;4.55;;;;;;;12.47;100.00;102026.94;5028402;28;20405;-77
2023/08/10 02:55:22;;;;;;;7.35;5.30;;;;;;;12.41;100.00;102029.97;5040718;28;20456;-77
2023/08/10 02:57:48;;;;;;;7.43;4.90;;;;;;;12.40;100.00;102036.16;5033547;28;20029;-77
2023/08/10 03:00:14;;;;;;;7.68;4.95;;;;;;;12.37;100.00;102033.72;5051746;28;20037;-77
2023/08/10 03:02:40;;;;;;;9.38;5.10;;;;;;;12.38;100.00;102034.56;5028118;28;20025;-77
2023/08/10 03:05:06;;;;;;;6.78;4.60;;;;;;;12.34;100.00;102033.91;5060622;28;20044;-77
2023/08/10 03:07:31;;;;;;;6.07;4.32;;;;;;;12.31;100.00;102034.13;5025891;28;20144;-77
2023/08/10 03:09:57;;;;;;;7.63;4.35;;;;;;;12.31;100.00;102042.03;5025637;28;20805;-77
2023/08/10 03:12:22;;;;;;;5.93;4.82;;;;;;;12.28;100.00;102042.22;5026418;28;20018;-77
2023/08/10 03:14:48;;;;;;;4.93;4.38;;;;;;;12.27;100.00;102043.16;5045787;28;20158;-77
2023/08/10 03:17:13;;;;;;;6.03;4.70;;;;;;;12.21;100.00;102048.81;5024307;28;20049;-77
2023/08/10 03:19:38;;;;;;;5.47;4.47;;;;;;;12.21;100.00;102040.91;5029796;28;20133;-77
2023/08/10 03:22:04;;;;;;;6.95;4.90;;;;;;;12.19;100.00;102050.72;5037106;28;20045;-77
2023/08/10 03:24:30;;;;;;;7.05;4.70;;;;;;;12.16;100.00;102045.63;5044328;28;20358;-77
2023/08/10 03:26:55;;;;;;;6.15;4.63;;;;;;;12.12;100.00;102042.34;5048168;28;20032;-77
2023/08/10 03:29:21;;;;;;;8.82;4.75;;;;;;;12.12;100.00;102049.41;5048547;28;20025;-77
2023/08/10 03:31:46;;;;;;;7.38;5.10;;;;;;;12.16;100.00;102040.34;5050394;28;20413;-77
2023/08/10 03:34:11;;;;;;;8.93;4.97;;;;;;;12.16;100.00;102035.06;5032954;28;20022;-77
2023/08/10 03:36:37;;;;;;;6.90;5.47;;;;;;;12.11;100.00;102034.50;5040360;28;20100;-77
2023/08/10 03:39:03;;;;;;;7.07;5.32;;;;;;;12.11;100.00;102032.72;5051585;28;20111;-78
2023/08/10 03:41:28;;;;;;;7.82;4.93;;;;;;;12.12;100.00;102030.94;5034347;28;20037;-78
2023/08/10 03:43:53;;;;;;;13.27;5.45;;;;;;;12.07;100.00;102027.72;5031289;28;20017;-78
2023/08/10 03:46:19;;;;;;;9.30;5.43;;;;;;;12.05;100.00;102032.25;5039079;28;20041;-78
2023/08/10 03:48:44;;;;;;;6.30;5.45;;;;;;;12.04;100.00;102043.75;5048272;28;20040;-78
2023/08/10 03:51:10;;;;;;;6.97;5.40;;;;;;;12.07;100.00;102038.28;5045432;28;20477;-78
2023/08/10 03:53:35;;;;;;;7.18;5.10;;;;;;;12.00;100.00;102042.22;5026373;28;20073;-78
2023/08/10 03:56:01;;;;;;;13.27;5.18;;;;;;;11.97;100.00;102045.88;5046799;28;20716;-78
2023/08/10 03:58:26;;;;;;;7.18;4.95;;;;;;;11.95;100.00;102042.50;5034508;28;20645;-78
2023/08/10 04:00:52;;;;;;;6.43;5.13;;;;;;;11.96;100.00;102048.63;5042503;28;20036;-78
2023/08/10 04:03:17;;;;;;;6.85;5.35;;;;;;;11.90;100.00;102036.66;5035892;28;20029;-78
2023/08/10 04:05:42;;;;;;;7.88;5.65;;;;;;;11.92;100.00;102047.94;5047891;28;20601;-78
2023/08/10 04:08:09;;;;;;;5.75;5.15;;;;;;;11.90;100.00;102050.69;5034381;28;20482;-78
2023/08/10 04:10:34;;;;;;;7.47;5.55;;;;;;;11.91;100.00;102047.09;5063490;28;20025;-78
2023/08/10 04:13:00;;;;;;;8.68;5.43;;;;;;;11.94;100.00;102053.97;5034588;28;20029;-78
2023/08/10 04:15:25;;;;;;;7.88;5.60;;;;;;;11.88;100.00;102064.91;5045932;28;20033;-77
2023/08/10 04:17:51;;;;;;;7.00;6.00;;;;;;;11.85;100.00;102058.03;5029577;28;20435;-78
2023/08/10 04:20:17;;;;;;;5.70;5.13;;;;;;;11.86;100.00;102058.88;5030294;28;20453;-78
2023/08/10 04:22:42;;;;;;;8.05;5.60;;;;;;;11.83;100.00;102057.28;5030753;28;20021;-78
2023/08/10 04:25:10;;;;;;;6.93;5.53;;;;;;;11.82;100.00;102052.94;5024079;28;20057;-78
2023/08/10 04:27:36;;;;;;;8.00;5.78;;;;;;;11.85;100.00;102058.03;5031157;28;20076;-78
2023/08/10 04:30:06;;;;;;;6.50;5.80;;;;;;;11.86;100.00;102057.09;5049444;28;20071;-78
2023/08/10 04:32:32;;;;;;;6.93;5.90;;;;;;;11.85;100.00;102060.66;5043472;28;20021;-76
2023/08/10 04:34:57;;;;;;;6.72;5.75;;;;;;;11.84;100.00;102060.75;5049917;28;20477;-76
2023/08/10 04:37:23;;;;;;;6.75;6.05;;;;;;;11.85;100.00;102063.31;5047199;28;20033;-76
2023/08/10 04:39:48;;;;;;;7.55;5.85;;;;;;;11.84;100.00;102064.25;5045125;28;20515;-76
2023/08/10 04:42:14;;;;;;;10.15;6.53;;;;;;;11.78;100.00;102056.69;5038793;28;20498;-77
2023/08/10 04:44:40;;;;;;;8.30;6.10;;;;;;;11.81;100.00;102072.34;5048953;28;20025;-77
2023/08/10 04:47:05;;;;;;;8.73;6.18;;;;;;;11.85;100.00;102073.00;5047154;28;20052;-77
2023/08/10 04:49:31;;;;;;;8.35;6.45;;;;;;;11.79;100.00;102076.00;5050101;28;20024;-77
2023/08/10 04:51:57;;;;;;;10.20;6.85;;;;;;;11.82;100.00;102074.03;5050700;28;20047;-77
2023/08/10 04:54:22;;;;;;;12.73;6.97;;;;;;;11.88;100.00;102081.56;5049262;28;20020;-77
2023/08/10 04:56:48;;;;;;;8.35;6.45;;;;;;;12.00;100.00;102077.34;5048601;28;20024;-77
2023/08/10 04:59:14;;;;;;;8.02;6.80;;;;;;;12.05;100.00;102080.59;5017681;28;20033;-77
2023/08/10 05:01:39;;;;;;;11.02;6.82;;;;;;;12.15;100.00;102078.22;5030169;28;20026;-77
2023/08/10 05:04:05;;;;;;;8.63;6.82;;;;;;;12.21;100.00;102080.50;5038841;28;20060;-77
2023/08/10 05:06:31;;;;;;;11.70;7.50;;;;;;;12.21;100.00;102086.63;5041905;28;20029;-77
2023/08/10 05:08:56;;;;;;;12.43;7.90;;;;;;;12.30;100.00;102076.44;5035567;28;20118;-77
2023/08/10 05:11:23;;;;;;;9.50;7.60;;;;;;;12.36;100.00;102076.91;5043402;28;20025;-77
2023/08/10 05:13:48;;;;;;;11.18;7.93;;;;;;;12.35;100.00;102071.72;5038698;28;20489;-77
2023/08/10 05:16:15;;;;;;;10.95;7.15;;;;;;;12.43;100.00;102072.13;5022678;28;20028;-77
2023/08/10 05:18:40;;;;;;;10.88;7.68;;;;;;;12.49;100.00;102074.38;5036602;28;20032;-77
2023/08/10 05:21:06;;;;;;;9.15;7.22;;;;;;;12.52;100.00;102079.47;5038959;28;20028;-77
2023/08/10 05:23:31;;;;;;;9.80;7.20;;;;;;;12.54;100.00;102075.78;5049176;28;20440;-77
2023/08/10 05:25:56;;;;;;;10.82;7.35;;;;;;;12.59;100.00;102085.19;5049598;28;20546;-77
2023/08/10 05:28:22;;;;;;;9.68;7.35;;;;;;;12.62;100.00;102087.63;5042276;28;20029;-77
2023/08/10 05:30:47;;;;;;;11.80;7.43;;;;;;;12.66;100.00;102079.44;5029059;28;20021;-77
2023/08/10 05:33:13;;;;;;;9.43;7.25;;;;;;;12.70;100.00;102082.72;5015853;28;20149;-77
2023/08/10 05:35:38;;;;;;;11.98;7.38;;;;;;;12.75;100.00;102075.34;5055651;28;20036;-77
2023/08/10 05:38:03;;;;;;;8.88;7.13;;;;;;;12.77;100.00;102074.31;5045212;28;20040;-77
2023/08/10 05:40:29;;;;;;;10.40;7.28;;;;;;;12.81;100.00;102067.06;5046863;28;20091;-77
2023/08/10 05:42:55;;;;;;;11.93;7.63;;;;;;;12.82;100.00;102068.75;5046055;28;20668;-77
2023/08/10 05:45:21;;;;;;;9.10;7.63;;;;;;;12.85;100.00;102064.13;5047214;28;20051;-77
2023/08/10 05:47:50;;;;;;;12.38;7.15;;;;;;;12.88;100.00;102071.00;5048017;28;20028;-77
2023/08/10 05:50:16;;;;;;;12.48;7.60;;;;;;;12.88;100.00;102068.38;5029951;28;20032;-77
2023/08/10 05:52:44;;;;;;;11.93;8.00;;;;;;;12.92;100.00;102063.72;5038712;28;20075;-77
2023/08/10 05:55:11;;;;;;;12.07;8.15;;;;;;;12.93;100.00;102062.78;5047952;28;20056;-77
2023/08/10 05:57:36;;;;;;;9.90;8.23;;;;;;;12.99;100.00;102068.50;5048515;28;20029;-77
2023/08/10 06:00:02;;;;;;;11.82;8.45;;;;;;;13.06;100.00;102069.81;5047191;28;20048;-77
2023/08/10 06:02:28;;;;;;;10.77;8.48;;;;;;;13.09;100.00;102069.59;5027550;28;20623;-77
2023/08/10 06:04:53;;;;;;;14.35;9.48;;;;;;;13.12;100.00;102064.13;5023763;28;20029;-77
2023/08/10 06:07:18;;;;;;;11.32;8.70;;;;;;;13.20;100.00;102068.09;5038933;28;20087;-77
2023/08/10 06:09:44;;;;;;;14.90;8.45;;;;;;;13.34;100.00;102075.97;5029101;28;20039;-77
2023/08/10 06:12:10;;;;;;;14.40;8.35;;;;;;;13.47;100.00;102068.91;5027541;28;20033;-77
2023/08/10 06:14:40;;;;;;;14.45;9.32;;;;;;;13.66;100.00;102073.84;5039204;28;20021;-77
2023/08/10 06:17:05;;;;;;;11.63;8.50;;;;;;;13.76;100.00;102070.47;5043810;28;20036;-77
2023/08/10 06:19:31;;;;;;;13.60;9.10;;;;;;;13.90;100.00;102073.97;5048455;28;20094;-77
2023/08/10 06:21:57;;;;;;;13.05;8.52;;;;;;;13.91;100.00;102071.22;5024458;28;20432;-77
2023/08/10 06:24:22;;;;;;;12.80;8.70;;;;;;;13.96;100.00;102076.19;5027492;28;20041;-77
2023/08/10 06:26:49;;;;;;;11.07;8.43;;;;;;;14.02;100.00;102081.09;5040827;28;20037;-77
2023/08/10 06:29:15;;;;;;;10.48;8.57;;;;;;;14.00;100.00;102083.81;5046921;28;20025;-78
2023/08/10 06:31:40;;;;;;;10.82;8.88;;;;;;;13.99;100.00;102078.63;5046319;28;20401;-77
2023/08/10 06:34:06;;;;;;;13.80;8.23;;;;;;;14.02;100.00;102081.94;5028544;28;20033;-77
2023/08/10 06:36:31;;;;;;;11.43;8.90;;;;;;;14.11;100.00;102076.00;5018696;28;20029;-78
2023/08/10 06:38:57;;;;;;;14.02;8.65;;;;;;;14.12;100.00;102079.50;5027143;28;20031;-78
2023/08/10 06:41:22;;;;;;;10.50;8.82;;;;;;;14.23;100.00;102079.59;5027726;28;20116;-78
2023/08/10 06:43:49;;;;;;;11.55;9.15;;;;;;;14.30;100.00;102064.09;5028330;28;20025;-78
2023/08/10 06:46:14;;;;;;;11.98;8.02;;;;;;;14.36;100.00;102069.81;5028203;28;20045;-78
2023/08/10 06:48:40;;;;;;;10.63;8.25;;;;;;;14.47;100.00;102060.31;5041699;28;20025;-78
2023/08/10 06:51:05;;;;;;;10.32;7.10;;;;;;;14.54;100.00;102053.63;5048832;28;20485;-78
2023/08/10 06:53:33;;;;;;;8.50;6.82;;;;;;;14.65;100.00;102056.34;5044048;28;20022;-78
2023/08/10 06:55:59;;;;;;;12.13;7.00;;;;;;;14.74;100.00;102058.34;5046634;28;20022;-78
2023/08/10 06:58:24;;;;;;;11.23;6.75;;;;;;;14.79;100.00;102048.25;5031118;28;20142;-78
2023/08/10 07:00:50;;;;;;;13.13;6.40;;;;;;;14.94;100.00;102049.78;5031369;28;20025;-77
2023/08/10 07:03:16;;;;;;;8.80;6.50;;;;;;;15.13;100.00;102045.78;5030863;28;20525;-78
2023/08/10 07:05:43;;;;;;;11.30;6.28;;;;;;;15.27;100.00;102056.22;5046419;28;20496;-78
2023/08/10 07:08:09;;;;;;;8.00;5.22;;;;;;;15.52;100.00;102049.91;5052284;28;20033;-78
2023/08/10 07:10:36;;;;;;;7.50;4.38;;;;;;;15.76;100.00;102057.84;5050568;28;20028;-78
2023/08/10 07:13:01;;;;;;;6.50;4.18;;;;;;;16.00;96.62;102045.34;5050830;28;20036;-78
2023/08/10 07:15:27;;;;;;;10.80;4.30;;;;;;;16.22;93.90;102047.19;5048280;28;20185;-78
2023/08/10 07:17:52;;;;;;;9.93;4.13;;;;;;;16.55;93.65;102048.97;5045007;28;20393;-78
2023/08/10 07:20:18;;;;;;;8.20;3.78;;;;;;;16.73;91.21;102052.84;5045529;28;20422;-78
2023/08/10 07:22:45;;;;;;;6.43;3.65;;;;;;;16.99;88.98;102053.38;5049287;28;20023;-78
2023/08/10 07:25:12;;;;;;;5.25;3.53;;;;;;;17.20;85.71;102059.59;5035079;28;20025;-77
2023/08/10 07:27:37;;;;;;;5.90;3.10;;;;;;;17.49;84.69;102053.66;5031408;28;20087;-78
2023/08/10 07:30:03;;;;;;;5.22;2.90;;;;;;;17.80;84.04;102054.63;5031507;28;20025;-78
2023/08/10 07:32:29;;;;;;;4.63;2.80;;;;;;;18.06;77.17;102052.38;5018184;28;20098;-78
2023/08/10 07:34:55;;;;;;;4.10;2.28;;;;;;;18.28;77.69;102051.34;5029272;28;20108;-77
2023/08/10 07:37:21;;;;;;;3.70;1.50;;;;;;;18.51;66.44;102058.19;5019572;28;20117;-80
2023/08/10 07:39:47;;;;;;;3.60;1.70;;;;;;;18.73;65.52;102054.47;5034966;28;20466;-78
2023/08/10 07:42:13;;;;;;;3.53;1.70;;;;;;;18.98;66.21;102047.78;5031453;28;20029;-81
2023/08/10 07:44:38;;;;;;;5.97;1.80;;;;;;;19.27;69.19;102045.16;5031410;28;20025;-80
2023/08/10 07:47:04;;;;;;;3.80;1.95;;;;;;;19.40;66.74;102057.22;5031058;28;20046;-80
2023/08/10 07:49:29;;;;;;;2.50;1.65;;;;;;;19.68;60.36;102052.03;5030277;28;20026;-80
2023/08/10 07:51:55;;;;;;;5.40;1.80;;;;;;;19.85;59.67;102055.78;5028971;28;20385;-80
2023/08/10 07:54:20;;;;;;;3.28;1.58;;;;;;;20.13;54.77;102056.69;5026694;28;20447;-80
2023/08/10 07:56:45;;;;;;;2.55;1.30;;;;;;;20.24;54.50;102052.00;5027091;28;20666;-82
2023/08/10 07:59:12;;;;;;;6.75;1.30;;;;;;;20.57;52.55;102057.78;5062424;28;20421;-82
2023/08/10 08:01:38;;;;;;;5.85;1.70;;;;;;;20.65;53.20;102058.72;5031449;28;20028;-80
2023/08/10 08:04:04;;;;;;;5.45;1.60;;;;;;;20.73;50.75;102057.13;5032286;28;20544;-80
2023/08/10 08:06:29;;;;;;;4.63;1.58;;;;;;;20.93;52.60;102053.34;5034028;28;20037;-80
2023/08/10 08:08:55;;;;;;;2.35;1.35;;;;;;;21.25;52.53;102053.72;5045614;28;20057;-80
2023/08/10 08:11:20;;;;;;;3.95;1.65;;;;;;;21.43;52.46;102052.84;5033324;28;20026;-80
2023/08/10 08:13:45;;;;;;;5.25;1.48;;;;;;;21.45;51.73;102049.00;5041078;28;20115;-80
2023/08/10 08:16:11;;;;;;;3.35;1.33;;;;;;;21.76;50.55;102052.09;5045552;28;20028;-80
2023/08/10 08:18:47;;;;;;;3.05;1.30;;;;;;;21.99;52.84;102046.19;5032943;28;20048;-79
2023/08/10 08:21:17;;;;;;;3.85;1.30;;;;;;;22.05;49.51;102050.97;5047611;28;20037;-80
2023/08/10 08:23:43;;;;;;;2.20;1.30;;;;;;;22.31;48.48;102046.41;5042957;28;20071;-81
2023/08/10 08:26:11;;;;;;;3.83;1.30;;;;;;;22.64;48.34;102041.16;5021906;28;20057;-81
2023/08/10 08:28:40;;;;;;;2.58;1.17;;;;;;;22.69;48.16;102045.03;5044074;28;20032;-81
2023/08/10 08:31:06;;;;;;;3.85;1.35;;;;;;;22.75;46.73;102043.53;5037077;28;20388;-81
2023/08/10 08:33:32;;;;;;;3.28;1.30;;;;;;;23.01;45.44;102046.16;5039487;28;20023;-81
2023/08/10 08:35:58;;;;;;;4.22;1.40;;;;;;;22.95;46.45;102050.34;5030238;28;20047;-81
2023/08/10 08:38:24;;;;;;;4.25;1.38;;;;;;;22.95;47.05;102053.03;5029592;28;20152;-81
2023/08/10 08:40:50;;;;;;;1.40;1.05;;;;;;;23.29;47.12;102055.59;5028889;28;20120;-81
2023/08/10 08:43:16;;;;;;;3.33;1.52;;;;;;;23.32;45.10;102049.88;5030181;28;20111;-81
2023/08/10 08:45:45;;;;;;;4.45;1.45;;;;;;;23.29;46.08;102046.69;5028244;28;20052;-82
2023/08/10 08:48:14;;;;;;;3.75;1.40;;;;;;;23.31;46.98;102052.72;5051582;28;20033;-81
2023/08/10 08:50:40;;;;;;;2.83;1.40;;;;;;;23.70;48.66;102045.69;5038514;28;20028;-81
2023/08/10 08:53:11;;;;;;;1.63;1.10;;;;;;;24.00;46.44;102048.63;5030414;28;20017;-81
2023/08/10 08:55:38;;;;;;;3.22;1.27;;;;;;;24.26;48.18;102046.53;5037296;28;20021;-82
2023/08/10 08:58:04;;;;;;;7.15;1.30;;;;;;;24.17;44.06;102057.50;5030249;28;20052;-81
2023/08/10 09:00:31;;;;;;;3.05;1.20;;;;;;;23.79;45.88;102048.34;5030050;28;20060;-81
2023/08/10 09:02:57;;;;;;;3.40;1.48;;;;;;;23.12;46.63;102049.34;5029177;28;20025;-81
2023/08/10 09:05:22;;;;;;;2.10;1.15;;;;;;;22.89;48.33;102045.63;5040964;28;20041;-82
2023/08/10 09:07:48;;;;;;;2.50;1.20;;;;;;;22.88;47.45;102037.75;5025823;28;20505;-80
2023/08/10 09:10:13;;;;;;;2.38;1.20;;;;;;;22.72;47.38;102033.13;5029334;28;20509;-81
2023/08/10 09:12:40;;;;;;;2.75;1.40;;;;;;;22.45;48.02;102032.41;5030898;28;20112;-82
2023/08/10 09:15:11;;;;;;;2.10;1.00;;;;;;;22.40;48.71;102029.31;5030138;28;20028;-81
2023/08/10 09:17:53;;;;;;;1.63;1.20;;;;;;;22.43;50.28;102033.56;5046739;28;20107;-81
2023/08/10 09:20:24;;;;;;;3.50;1.10;;;;;;;22.22;49.96;102036.63;5028590;28;20057;-81
2023/08/10 09:22:52;;;;;;;5.10;1.70;;;;;;;22.31;50.68;102037.50;5056273;28;20068;-80
2023/08/10 09:25:18;;;;;;;2.83;1.30;;;;;;;22.43;49.30;102034.41;5030462;28;20028;-79
2023/08/10 09:27:44;;;;;;;3.53;1.20;;;;;;;22.56;49.02;102033.09;5041310;28;20029;-79
2023/08/10 09:30:10;;;;;;;1.95;1.17;;;;;;;22.92;50.10;102023.81;5037364;28;20035;-80
2023/08/10 09:32:38;;;;;;;3.40;1.30;;;;;;;23.12;48.65;102027.03;5034668;28;20044;-81
2023/08/10 09:35:05;;;;;;;3.60;1.33;;;;;;;23.09;49.31;102027.34;5028565;28;20079;-80
2023/08/10 09:37:31;;;;;;;2.83;1.40;;;;;;;23.18;48.64;102029.03;5029608;28;20028;-81
2023/08/10 09:40:06;;;;;;;2.28;1.30;;;;;;;23.00;47.94;102031.03;5027314;28;20021;-80
2023/08/10 09:42:32;;;;;;;2.53;1.30;;;;;;;22.87;48.53;102020.81;5021022;28;20096;-81
2023/08/10 09:44:59;;;;;;;2.83;1.25;;;;;;;23.02;51.27;102024.50;5011887;28;20037;-81
2023/08/10 09:47:25;;;;;;;7.13;1.25;;;;;;;23.05;51.88;102028.69;5014483;28;20041;-81
2023/08/10 09:50:01;;;;;;;2.75;1.48;;;;;;;23.42;49.27;102037.09;5032055;28;20032;-81
2023/08/10 09:52:27;;;;;;;1.92;1.20;;;;;;;23.36;48.94;102029.72;5047972;28;20029;-79
2023/08/10 09:54:55;;;;;;;3.28;1.40;;;;;;;23.37;47.21;102027.88;5035069;28;20028;-80
2023/08/10 09:57:22;;;;;;;2.70;1.05;;;;;;;23.36;46.34;102026.19;5040726;28;20456;-80
2023/08/10 09:59:48;;;;;;;2.22;1.30;;;;;;;23.31;49.33;102023.19;5041412;28;20167;-81
2023/08/10 10:02:15;;;;;;;2.38;1.50;;;;;;;23.41;48.01;102035.44;5041795;28;20041;-79
2023/08/10 10:04:45;;;;;;;1.75;1.30;;;;;;;23.44;48.27;102035.09;5039928;28;20021;-81
2023/08/10 10:07:11;;;;;;;2.20;1.20;;;;;;;23.47;47.84;102036.59;5025949;28;20497;-80
2023/08/10 10:09:39;;;;;;;2.08;1.30;;;;;;;23.34;47.92;102036.28;5045710;28;20524;-80
2023/08/10 10:12:08;;;;;;;2.83;1.60;;;;;;;23.16;46.75;102030.19;5027364;28;20083;-81
2023/08/10 10:14:38;;;;;;;2.75;1.50;;;;;;;23.12;48.42;102035.91;5044544;28;20508;-79
2023/08/10 10:17:05;;;;;;;2.85;1.70;;;;;;;22.81;47.47;102032.16;5029763;28;20040;-80
2023/08/10 10:19:30;;;;;;;3.70;1.58;;;;;;;22.94;50.21;102032.53;5013466;28;20030;-80
2023/08/10 10:21:56;;;;;;;6.13;2.00;;;;;;;23.03;49.45;102031.53;5016706;28;20037;-80
2023/08/10 10:24:21;;;;;;;4.47;1.70;;;;;;;22.92;48.31;102034.56;5028347;28;20434;-80
2023/08/10 10:27:04;;;;;;;3.65;1.50;;;;;;;23.08;51.25;102045.31;5021040;28;20050;-80
2023/08/10 10:29:40;;;;;;;4.00;1.50;;;;;;;23.06;50.52;102043.81;5045607;28;20029;-80
2023/08/10 10:32:11;;;;;;;2.45;1.38;;;;;;;23.22;49.82;102046.50;5023962;28;20117;-80
2023/08/10 10:34:40;;;;;;;2.53;1.23;;;;;;;23.31;48.57;102029.38;5032524;28;20033;-81
2023/08/10 10:37:12;;;;;;;2.13;1.40;;;;;;;23.32;47.92;102028.38;5031552;28;20040;-81
2023/08/10 10:39:39;;;;;;;3.28;1.50;;;;;;;23.60;49.96;102028.03;5065940;28;20052;-81
2023/08/10 10:42:04;;;;;;;4.80;1.50;;;;;;;23.88;47.67;102026.66;5044865;28;20025;-81
2023/08/10 10:45:05;;;;;;;3.70;1.52;;;;;;;24.22;50.37;102033.63;5035883;28;20056;-80
2023/08/10 10:47:40;;;;;;;3.15;1.60;;;;;;;24.27;48.10;102029.41;5032236;28;20036;-79
2023/08/10 10:50:19;;;;;;;3.28;1.63;;;;;;;24.51;50.02;102024.94;5035000;28;20017;-80
2023/08/10 10:53:02;;;;;;;3.47;1.50;;;;;;;24.53;49.24;102014.84;5031017;28;20124;-81
2023/08/10 10:55:36;;;;;;;3.05;1.70;;;;;;;24.54;45.30;102013.84;5043373;28;20124;-80
2023/08/10 10:58:03;;;;;;;3.60;1.50;;;;;;;24.51;46.00;102006.13;5030393;28;20087;-81
2023/08/10 11:00:30;;;;;;;3.08;1.60;;;;;;;24.51;45.21;102012.34;5030482;28;20076;-81
2023/08/10 11:02:55;;;;;;;2.63;1.50;;;;;;;24.43;44.47;102015.06;5023958;28;20033;-81
2023/08/10 11:05:21;;;;;;;1.92;1.48;;;;;;;24.51;45.41;102014.19;5031297;28;20477;-81
2023/08/10 11:07:49;;;;;;;4.22;1.70;;;;;;;24.50;44.72;102012.50;5029824;28;21087;-81
2023/08/10 11:10:16;;;;;;;2.05;1.42;;;;;;;24.69;46.08;102007.50;5035969;28;20037;-81
2023/08/10 11:12:43;;;;;;;2.75;1.60;;;;;;;24.90;46.16;102012.25;5030788;28;20363;-81
2023/08/10 11:15:10;;;;;;;3.63;1.60;;;;;;;25.02;45.71;102014.56;5030276;28;20025;-81
2023/08/10 11:17:37;;;;;;;3.08;1.60;;;;;;;24.78;46.74;102013.66;5032521;28;20451;-81